Rota, Northern Mariana Islands
Current Conditions -  °F | °C
As of 5:50 PM on Friday 24 Oct 2014 (Local Time) from PGRO Reporting Station
Rain Showers Rain Showers  
Wind Chill: 81°   Ceiling: 5000
Heat Index: 87°   Visibility: 7mi
Dew Point: 77°   Wind: 8mph
Humidity: 89%   Direction: 90°E
Pressure: 29.88"   Gusts: NA
Location:  14.14°N, 145.14°E
Report Text: PGRO 240750Z 09007KT 7SM VCSH SCT010 BKN050 27/25 A2988 RMK VCSH N
Loading
Personal Weather Stations






























Interactive Weather Map
Tropical Storm Tracking
New forecast layout! Learn more

10-Day Weather Forecast

Advertisements
Track Severe Weather on mobile